Time;durP1;ratioP1;P1;durP2;ratioP2;P2;SDS_P1;SDS_P2;PMS_P1;PMS_P2;Temp;Humidity;BMP_temperature;BMP_pressure;BME280_temperature;BME280_humidity;BME280_pressure;Samples;Min_cycle;Max_cycle;Signal;HPM_P1;HPM_P2
2022/01/04 00:01:09;;;;;;;0.50;0.10;;;10.90;1.00;;;;;;5103446;28;20445;-75
2022/01/04 00:03:37;;;;;;;0.53;0.10;;;;;;;;;;5097171;28;20451;-75
2022/01/04 00:06:05;;;;;;;0.50;0.10;;;10.90;1.00;;;;;;5098536;28;20482;-76
2022/01/04 00:08:35;;;;;;;0.50;0.10;;;11.00;1.00;;;;;;5114178;28;20451;-74
2022/01/04 00:11:08;;;;;;;0.60;0.20;;;11.00;1.00;;;;;;5119097;28;20459;-76
2022/01/04 00:13:36;;;;;;;0.57;0.10;;;11.00;1.00;;;;;;5106259;28;20446;-75
2022/01/04 00:16:07;;;;;;;0.50;0.10;;;10.90;1.00;;;;;;5110364;28;20443;-76
2022/01/04 00:18:35;;;;;;;0.50;0.10;;;10.90;1.00;;;;;;5118446;28;20996;-75
2022/01/04 00:21:03;;;;;;;0.50;0.10;;;10.90;1.00;;;;;;5118682;28;20444;-75
2022/01/04 00:23:32;;;;;;;0.50;0.10;;;10.90;1.00;;;;;;5108448;28;20439;-76
2022/01/04 00:26:01;;;;;;;0.50;0.10;;;10.90;1.00;;;;;;5115284;28;20435;-76
2022/01/04 00:28:29;;;;;;;0.50;0.10;;;10.90;1.00;;;;;;5112048;28;20446;-76
2022/01/04 00:30:57;;;;;;;0.50;0.10;;;10.90;1.00;;;;;;5095539;28;20452;-76
2022/01/04 00:33:25;;;;;;;0.50;0.10;;;10.90;1.00;;;;;;5104690;28;20437;-76
2022/01/04 00:35:53;;;;;;;0.60;0.40;;;10.90;1.00;;;;;;5112427;28;20981;-75
2022/01/04 00:38:21;;;;;;;0.50;0.10;;;10.90;1.00;;;;;;5113527;28;20895;-75
2022/01/04 00:40:49;;;;;;;0.50;0.10;;;10.90;1.00;;;;;;5114110;28;20814;-75
2022/01/04 00:43:18;;;;;;;0.60;0.20;;;10.90;1.00;;;;;;5113802;28;20470;-76
2022/01/04 00:45:46;;;;;;;0.60;0.50;;;10.90;1.00;;;;;;5113619;28;20497;-75
2022/01/04 00:51:00;;;;;;;0.50;0.10;;;11.00;1.00;;;;;;5100392;28;20449;-76
2022/01/04 00:53:27;;;;;;;0.50;0.10;;;11.00;1.00;;;;;;5096490;28;20460;-76
2022/01/04 00:55:55;;;;;;;0.50;0.10;;;11.00;1.00;;;;;;5114069;28;20440;-76
2022/01/04 00:58:24;;;;;;;0.60;0.10;;;11.00;1.00;;;;;;5113377;28;20481;-76
2022/01/04 01:00:52;;;;;;;0.50;0.10;;;11.00;1.00;;;;;;5101934;28;20448;-76
2022/01/04 01:03:20;;;;;;;0.50;0.20;;;11.00;1.00;;;;;;5102055;28;20465;-75
2022/01/04 01:05:48;;;;;;;0.50;0.10;;;11.00;1.00;;;;;;5095711;28;20452;-76
2022/01/04 01:08:16;;;;;;;0.60;0.10;;;10.90;1.00;;;;;;5114451;28;20443;-76
2022/01/04 01:10:47;;;;;;;0.50;0.10;;;10.90;1.00;;;;;;5113413;28;20467;-75
2022/01/04 01:13:16;;;;;;;0.50;0.10;;;11.00;1.00;;;;;;5113150;28;20980;-75
2022/01/04 01:15:46;;;;;;;0.50;0.10;;;10.90;1.00;;;;;;5111380;28;20450;-75
2022/01/04 01:18:16;;;;;;;0.50;0.20;;;10.90;1.00;;;;;;5113660;28;20435;-75
2022/01/04 01:20:48;;;;;;;0.50;0.10;;;10.90;1.00;;;;;;5112995;28;20464;-76
2022/01/04 01:23:16;;;;;;;0.50;0.10;;;10.90;1.00;;;;;;5112789;28;20454;-75
2022/01/04 01:25:43;;;;;;;0.60;0.10;;;10.90;1.00;;;;;;5096278;28;20447;-75
2022/01/04 01:28:11;;;;;;;0.50;0.10;;;10.90;1.00;;;;;;5092971;28;20439;-74
2022/01/04 01:30:41;;;;;;;0.60;0.47;;;10.90;1.00;;;;;;5092923;28;20465;-74
2022/01/04 01:33:11;;;;;;;0.50;0.10;;;10.90;1.00;;;;;;5093058;28;20804;-75
2022/01/04 01:35:39;;;;;;;0.50;0.20;;;10.80;1.00;;;;;;5107627;28;20447;-75
2022/01/04 01:38:08;;;;;;;0.57;0.10;;;10.90;1.00;;;;;;5113065;28;20439;-76
2022/01/04 01:40:38;;;;;;;0.60;0.10;;;10.90;1.00;;;;;;5112139;28;20478;-75
2022/01/04 01:43:06;;;;;;;0.50;0.10;;;10.90;1.00;;;;;;5113020;28;20526;-76
2022/01/04 01:45:34;;;;;;;0.50;0.10;;;10.90;1.00;;;;;;5107321;28;20451;-75
2022/01/04 01:48:02;;;;;;;0.50;0.10;;;10.90;1.00;;;;;;5113662;28;20444;-74
2022/01/04 01:50:31;;;;;;;0.53;0.20;;;10.90;1.00;;;;;;5111491;28;20474;-74
2022/01/04 01:53:00;;;;;;;0.57;0.10;;;11.00;1.00;;;;;;5092574;28;20452;-76
2022/01/04 01:55:28;;;;;;;0.50;0.10;;;10.90;1.00;;;;;;5104915;28;20443;-76
2022/01/04 01:57:57;;;;;;;0.50;0.10;;;10.90;1.00;;;;;;5112697;28;20444;-75
2022/01/04 02:00:29;;;;;;;0.50;0.10;;;10.90;1.00;;;;;;5112238;28;20479;-75
2022/01/04 02:02:57;;;;;;;0.50;0.10;;;10.90;1.00;;;;;;5112869;28;20760;-75
2022/01/04 02:05:25;;;;;;;10.07;3.40;;;10.90;1.00;;;;;;5093740;28;20498;-75
2022/01/04 02:07:55;;;;;;;0.50;0.10;;;10.90;1.00;;;;;;5092472;28;20455;-76
2022/01/04 02:10:23;;;;;;;0.60;0.40;;;10.80;1.00;;;;;;5092109;28;20857;-76
2022/01/04 02:12:51;;;;;;;0.50;0.20;;;10.70;1.00;;;;;;5106092;28;20450;-75
2022/01/04 02:15:21;;;;;;;0.50;0.10;;;10.70;1.00;;;;;;5100023;28;20449;-75
2022/01/04 02:17:49;;;;;;;0.50;0.10;;;10.60;1.00;;;;;;5110816;28;20451;-75
2022/01/04 02:20:20;;;;;;;0.50;0.10;;;10.70;1.00;;;;;;5112128;28;20475;-75
2022/01/04 02:22:49;;;;;;;0.50;0.10;;;10.70;1.00;;;;;;5111929;28;20443;-75
2022/01/04 02:25:18;;;;;;;0.50;0.10;;;10.70;1.00;;;;;;5110206;28;21096;-75
2022/01/04 02:27:45;;;;;;;0.50;0.10;;;10.70;1.00;;;;;;5112345;28;20735;-75
2022/01/04 02:30:16;;;;;;;0.50;0.10;;;10.70;1.00;;;;;;5104315;28;20469;-75
2022/01/04 02:32:46;;;;;;;0.50;0.10;;;10.80;1.00;;;;;;5092295;28;20444;-75
2022/01/04 02:35:17;;;;;;;0.50;0.10;;;10.80;1.00;;;;;;5101326;28;20533;-76
2022/01/04 02:37:47;;;;;;;0.50;0.10;;;10.90;1.00;;;;;;5102123;28;20449;-75
2022/01/04 02:40:16;;;;;;;0.50;0.10;;;10.90;1.00;;;;;;5106811;28;20479;-75
2022/01/04 02:42:44;;;;;;;0.50;0.10;;;10.90;1.00;;;;;;5122292;28;20439;-75
2022/01/04 02:45:12;;;;;;;0.50;0.10;;;10.90;1.00;;;;;;5113784;28;20440;-75
2022/01/04 02:47:40;;;;;;;0.50;0.10;;;11.00;1.00;;;;;;5112419;28;20538;-76
2022/01/04 02:50:09;;;;;;;0.50;0.10;;;11.00;1.00;;;;;;5106490;28;20475;-75
2022/01/04 02:52:38;;;;;;;0.50;0.10;;;11.00;1.00;;;;;;5093354;28;20436;-75
2022/01/04 02:55:10;;;;;;;0.50;0.10;;;11.00;1.00;;;;;;5103381;28;20452;-74
2022/01/04 02:57:39;;;;;;;0.50;0.10;;;11.00;1.00;;;;;;5091595;28;20449;-75
2022/01/04 03:00:09;;;;;;;0.50;0.10;;;10.90;1.00;;;;;;5091682;28;20476;-77
2022/01/04 03:02:38;;;;;;;0.50;0.10;;;10.90;1.00;;;;;;5091723;28;20445;-75
2022/01/04 03:05:06;;;;;;;0.50;0.10;;;10.90;1.00;;;;;;5098901;28;20531;-74
2022/01/04 03:07:35;;;;;;;0.50;0.10;;;10.90;1.00;;;;;;5111670;28;20451;-76
2022/01/04 03:10:05;;;;;;;0.50;0.10;;;10.90;1.00;;;;;;5111681;28;20554;-74
2022/01/04 03:12:34;;;;;;;0.50;0.10;;;10.90;1.00;;;;;;5110930;28;20666;-75
2022/01/04 03:15:03;;;;;;;0.50;0.10;;;10.90;1.00;;;;;;5107459;28;20471;-76
2022/01/04 03:17:30;;;;;;;2.00;1.23;;;11.00;1.00;;;;;;5111822;28;20534;-76
2022/01/04 03:19:58;;;;;;;0.50;0.10;;;11.00;1.00;;;;;;5102077;28;20476;-76
2022/01/04 03:22:26;;;;;;;0.60;0.20;;;11.00;1.00;;;;;;5099856;28;20942;-76
2022/01/04 03:24:54;;;;;;;0.60;0.50;;;11.00;1.00;;;;;;5095800;28;20443;-76
2022/01/04 03:27:22;;;;;;;0.57;0.10;;;11.00;1.00;;;;;;5105237;28;20458;-76
2022/01/04 03:29:51;;;;;;;2.23;2.07;;;11.00;1.00;;;;;;5106983;28;20464;-76
2022/01/04 03:32:19;;;;;;;1.53;1.43;;;11.00;1.00;;;;;;5111735;28;20460;-76
2022/01/04 03:34:47;;;;;;;0.50;0.10;;;11.00;1.00;;;;;;5109288;28;20783;-76
2022/01/04 03:37:15;;;;;;;0.50;0.10;;;11.00;1.00;;;;;;5093847;28;20935;-76
2022/01/04 03:39:42;;;;;;;0.50;0.20;;;11.00;1.00;;;;;;5095728;28;20468;-76
2022/01/04 03:42:10;;;;;;;3.73;0.97;;;11.00;1.00;;;;;;5114328;28;20440;-76
2022/01/04 03:44:38;;;;;;;0.50;0.10;;;11.00;1.00;;;;;;5113114;28;20802;-76
2022/01/04 03:47:08;;;;;;;0.50;0.10;;;11.00;1.00;;;;;;5115357;28;20450;-75
2022/01/04 03:49:35;;;;;;;0.57;0.30;;;11.00;1.00;;;;;;5112329;28;20476;-77
2022/01/04 03:52:04;;;;;;;0.50;0.10;;;11.00;1.00;;;;;;5113863;28;21129;-76
2022/01/04 03:54:32;;;;;;;0.53;0.20;;;11.00;1.00;;;;;;5113558;28;20451;-75
2022/01/04 03:57:00;;;;;;;0.50;0.20;;;11.10;1.00;;;;;;5094515;28;20448;-74
2022/01/04 03:59:27;;;;;;;0.60;0.20;;;11.10;1.00;;;;;;5112187;28;20466;-74
2022/01/04 04:01:55;;;;;;;0.50;0.10;;;11.10;1.00;;;;;;5115018;28;20517;-75
2022/01/04 04:04:25;;;;;;;0.50;0.10;;;11.10;1.00;;;;;;5114061;28;20443;-75
2022/01/04 04:06:53;;;;;;;0.50;0.10;;;11.10;1.00;;;;;;5115113;28;20440;-75
2022/01/04 04:09:22;;;;;;;0.50;0.10;;;11.10;1.00;;;;;;5111043;28;20459;-75
2022/01/04 04:11:50;;;;;;;1.47;1.37;;;11.10;1.00;;;;;;5113748;28;20442;-75
2022/01/04 04:14:18;;;;;;;0.70;0.63;;;11.10;1.00;;;;;;5113474;28;20616;-75
2022/01/04 04:17:06;;;;;;;0.50;0.10;;;11.10;1.00;;;;;;5113908;28;20501;-75
2022/01/04 04:19:35;;;;;;;0.50;0.10;;;11.10;1.00;;;;;;5085632;22;1025960;-77
2022/01/04 04:22:04;;;;;;;0.50;0.10;;;11.10;1.00;;;;;;5123316;27;20220;-77
2022/01/04 04:24:31;;;;;;;0.50;0.10;;;11.10;1.00;;;;;;5133689;27;20446;-76
2022/01/04 04:26:59;;;;;;;0.50;0.10;;;11.10;1.00;;;;;;5117606;28;20795;-76
2022/01/04 04:29:27;;;;;;;0.50;0.10;;;11.10;1.00;;;;;;5124598;27;20475;-76
2022/01/04 04:31:55;;;;;;;0.70;0.47;;;11.10;1.00;;;;;;5131547;27;20453;-75
2022/01/04 04:34:23;;;;;;;0.50;0.10;;;11.10;1.00;;;;;;5126764;27;20439;-75
2022/01/04 04:36:53;;;;;;;0.73;0.73;;;;;;;;;;5135070;27;20438;-74
2022/01/04 04:39:21;;;;;;;0.60;0.47;;;11.10;1.00;;;;;;5120283;27;20472;-77
2022/01/04 04:41:49;;;;;;;0.80;0.67;;;11.10;1.00;;;;;;5114269;28;20988;-76
2022/01/04 04:44:17;;;;;;;0.83;0.83;;;11.00;1.00;;;;;;5114324;28;20816;-77
2022/01/04 04:46:46;;;;;;;0.60;0.30;;;11.00;1.00;;;;;;5135653;27;20446;-76
2022/01/04 04:49:14;;;;;;;6.70;1.53;;;11.00;1.00;;;;;;5140096;27;20530;-76
2022/01/04 04:51:42;;;;;;;0.50;0.20;;;11.00;1.00;;;;;;5136211;27;20793;-76
2022/01/04 04:54:11;;;;;;;0.50;0.10;;;11.00;1.00;;;;;;5134799;27;20972;-74
2022/01/04 04:56:39;;;;;;;0.50;0.10;;;11.00;1.00;;;;;;5135036;27;20831;-77
2022/01/04 04:59:07;;;;;;;0.57;0.30;;;11.10;1.00;;;;;;5134573;27;20548;-77
2022/01/04 05:01:35;;;;;;;1.80;1.60;;;11.10;1.00;;;;;;5117275;27;20478;-76
2022/01/04 05:04:04;;;;;;;1.90;1.67;;;11.10;1.00;;;;;;5114677;28;20448;-76
2022/01/04 05:06:32;;;;;;;1.37;0.70;;;11.10;1.00;;;;;;5115137;27;20443;-76
2022/01/04 05:09:00;;;;;;;0.50;0.20;;;11.00;1.00;;;;;;5113893;27;20790;-76
2022/01/04 05:11:29;;;;;;;0.60;0.30;;;11.00;1.00;;;;;;5131052;27;20449;-76
2022/01/04 05:13:57;;;;;;;0.60;0.30;;;11.00;1.00;;;;;;5136677;27;20475;-76
2022/01/04 05:16:25;;;;;;;0.50;0.10;;;11.20;1.00;;;;;;5134978;27;20793;-77
2022/01/04 05:18:54;;;;;;;0.50;0.20;;;11.00;1.00;;;;;;5134658;27;20816;-76
2022/01/04 05:21:22;;;;;;;0.50;0.10;;;11.00;1.00;;;;;;5120479;27;20476;-76
2022/01/04 05:23:50;;;;;;;0.50;0.10;;;10.90;1.00;;;;;;5124940;27;20813;-77
2022/01/04 05:26:18;;;;;;;0.50;0.10;;;11.00;1.00;;;;;;5124436;27;20448;-75
2022/01/04 05:28:47;;;;;;;0.50;0.10;;;;;;;;;;5118276;27;20982;-76
2022/01/04 05:31:15;;;;;;;0.50;0.10;;;11.00;1.00;;;;;;5125072;27;20509;-76
2022/01/04 05:33:43;;;;;;;0.50;0.10;;;11.00;1.00;;;;;;5120926;27;20451;-76
2022/01/04 05:36:11;;;;;;;0.50;0.20;;;11.00;1.00;;;;;;5119822;27;20486;-75
2022/01/04 05:38:40;;;;;;;0.50;0.20;;;11.00;1.00;;;;;;5114576;28;20443;-76
2022/01/04 05:41:08;;;;;;;0.50;0.10;;;11.00;1.00;;;;;;5115965;27;20941;-76
2022/01/04 05:43:36;;;;;;;0.90;0.40;;;11.00;1.00;;;;;;5124016;27;20516;-76
2022/01/04 05:46:05;;;;;;;0.50;0.10;;;11.00;1.00;;;;;;5125356;27;20449;-74
2022/01/04 05:48:33;;;;;;;0.50;0.10;;;11.00;1.00;;;;;;5122244;27;20466;-76
2022/01/04 05:51:01;;;;;;;0.50;0.10;;;11.00;1.00;;;;;;5130914;27;20816;-75
2022/01/04 05:53:33;;;;;;;1.43;0.87;;;11.00;1.00;;;;;;5123565;27;20447;-77
2022/01/04 05:56:01;;;;;;;0.50;0.20;;;11.00;1.00;;;;;;5113075;28;20490;-77
2022/01/04 05:58:29;;;;;;;0.50;0.10;;;11.00;1.00;;;;;;5123094;27;20461;-76
2022/01/04 06:00:56;;;;;;;0.80;0.50;;;11.00;1.00;;;;;;5130556;27;20465;-77
2022/01/04 06:03:26;;;;;;;0.50;0.20;;;11.00;1.00;;;;;;5136949;27;20971;-76
2022/01/04 06:05:55;;;;;;;0.50;0.10;;;11.00;1.00;;;;;;5133682;27;20457;-76
2022/01/04 06:08:23;;;;;;;0.60;0.40;;;11.00;1.00;;;;;;5133658;27;20480;-76
2022/01/04 06:10:52;;;;;;;0.50;0.10;;;10.90;1.00;;;;;;5124812;27;20517;-76
2022/01/04 06:16:05;;;;;;;0.50;0.10;;;10.90;1.00;;;;;;5117087;27;20454;-77
2022/01/04 06:18:34;;;;;;;0.50;0.10;;;10.80;1.00;;;;;;5116278;27;20927;-77
2022/01/04 06:21:03;;;;;;;0.50;0.10;;;10.80;1.00;;;;;;5116724;28;20814;-75
2022/01/04 06:23:31;;;;;;;0.50;0.10;;;10.80;1.00;;;;;;5124051;27;20546;-75
2022/01/04 06:25:59;;;;;;;1.07;0.87;;;10.70;1.00;;;;;;5115529;28;20461;-76
2022/01/04 06:28:27;;;;;;;0.50;0.10;;;10.70;1.00;;;;;;5122159;27;20541;-75
2022/01/04 06:30:54;;;;;;;1.10;0.53;;;10.60;1.00;;;;;;5117484;27;20819;-76
2022/01/04 06:33:23;;;;;;;0.50;0.10;;;;;;;;;;5112966;28;21021;-75
2022/01/04 06:35:52;;;;;;;0.50;0.10;;;10.40;1.00;;;;;;5130921;27;20450;-76
2022/01/04 06:38:20;;;;;;;0.50;0.10;;;10.40;1.00;;;;;;5113014;28;20447;-75
2022/01/04 06:40:48;;;;;;;0.50;0.10;;;10.30;1.00;;;;;;5113729;28;20822;-76
2022/01/04 06:43:16;;;;;;;0.50;0.10;;;10.20;1.00;;;;;;5126602;28;20474;-78
2022/01/04 06:45:44;;;;;;;0.50;0.10;;;10.20;1.00;;;;;;5125016;28;20941;-75
2022/01/04 06:48:12;;;;;;;0.50;0.10;;;10.10;1.00;;;;;;5134330;28;20438;-79
2022/01/04 06:50:40;;;;;;;0.50;0.10;;;10.10;1.00;;;;;;5113842;28;20837;-76
2022/01/04 06:53:09;;;;;;;0.50;0.20;;;10.00;1.00;;;;;;5120376;28;20440;-76
2022/01/04 06:55:37;;;;;;;0.50;0.10;;;10.00;1.00;;;;;;5124815;28;20437;-76
2022/01/04 06:58:05;;;;;;;0.50;0.10;;;10.00;1.00;;;;;;5133005;28;20445;-78
2022/01/04 07:00:34;;;;;;;0.50;0.10;;;9.90;1.00;;;;;;5123915;28;20459;-77
2022/01/04 07:03:02;;;;;;;0.50;0.10;;;9.90;1.00;;;;;;5134287;27;20557;-76
2022/01/04 07:05:30;;;;;;;0.50;0.20;;;9.90;1.00;;;;;;5136668;27;20447;-77
2022/01/04 07:07:58;;;;;;;0.57;0.20;;;9.80;1.00;;;;;;5136974;27;20785;-76
2022/01/04 07:10:27;;;;;;;0.50;0.10;;;9.80;1.00;;;;;;5136585;27;20519;-76
2022/01/04 07:12:55;;;;;;;0.50;0.10;;;9.70;1.00;;;;;;5126620;27;20987;-76
2022/01/04 07:15:23;;;;;;;0.50;0.10;;;9.70;1.00;;;;;;5120191;27;20447;-76
2022/01/04 07:17:51;;;;;;;0.53;0.10;;;9.70;1.00;;;;;;5131286;27;20458;-76
2022/01/04 07:20:19;;;;;;;0.50;0.10;;;9.70;1.00;;;;;;5128133;27;20481;-77
2022/01/04 07:22:47;;;;;;;0.50;0.10;;;9.70;1.00;;;;;;5128395;27;20470;-77
2022/01/04 07:25:15;;;;;;;0.50;0.10;;;9.70;1.00;;;;;;5127135;27;20449;-79
2022/01/04 07:27:44;;;;;;;0.70;0.70;;;9.60;1.00;;;;;;5137397;27;20449;-77
2022/01/04 07:30:13;;;;;;;0.77;0.77;;;9.60;1.00;;;;;;5138689;27;20468;-76
2022/01/04 07:32:41;;;;;;;0.50;0.10;;;9.60;1.00;;;;;;5129876;27;20442;-77
2022/01/04 07:35:09;;;;;;;0.50;0.20;;;9.60;1.00;;;;;;5122693;27;20458;-77
2022/01/04 07:37:37;;;;;;;0.50;0.10;;;9.60;1.00;;;;;;5120761;27;20439;-76
2022/01/04 07:40:07;;;;;;;0.50;0.10;;;9.60;1.00;;;;;;5129911;27;20462;-77
2022/01/04 07:42:35;;;;;;;0.50;0.17;;;9.60;1.00;;;;;;5138606;27;20845;-77
2022/01/04 07:45:05;;;;;;;0.50;0.10;;;9.60;1.00;;;;;;5138682;27;20447;-77
2022/01/04 07:47:33;;;;;;;0.50;0.10;;;9.50;1.00;;;;;;5138697;27;20497;-76
2022/01/04 07:50:01;;;;;;;0.50;0.10;;;9.50;1.00;;;;;;5129202;27;20482;-77
2022/01/04 07:52:28;;;;;;;0.50;0.10;;;9.50;1.00;;;;;;5143643;27;20463;-77
2022/01/04 07:54:56;;;;;;;0.50;0.10;;;9.50;1.00;;;;;;5133060;27;20447;-78
2022/01/04 07:57:25;;;;;;;0.50;0.10;;;9.50;1.00;;;;;;5135732;27;20475;-78
2022/01/04 07:59:53;;;;;;;0.50;0.10;;;9.50;1.00;;;;;;5130303;27;21096;-77
2022/01/04 08:02:22;;;;;;;0.50;0.20;;;9.50;1.00;;;;;;5129907;27;20484;-78
2022/01/04 08:04:50;;;;;;;0.50;0.10;;;9.50;1.00;;;;;;5130742;27;20919;-78
2022/01/04 08:07:18;;;;;;;0.50;0.10;;;9.50;1.00;;;;;;5137618;27;20838;-77
2022/01/04 08:09:46;;;;;;;0.50;0.10;;;9.50;1.00;;;;;;5145885;27;20477;-78
2022/01/04 08:12:14;;;;;;;0.50;0.10;;;9.50;1.00;;;;;;5143138;27;20446;-78
2022/01/04 08:14:44;;;;;;;0.50;0.10;;;9.50;1.00;;;;;;5124037;27;20968;-77
2022/01/04 08:17:12;;;;;;;0.50;0.10;;;9.50;1.00;;;;;;5138386;27;20444;-78
2022/01/04 08:19:42;;;;;;;0.50;0.10;;;9.50;1.00;;;;;;5135404;27;20482;-79
2022/01/04 08:22:10;;;;;;;0.50;0.10;;;;;;;;;;5136565;27;20459;-77
2022/01/04 08:24:38;;;;;;;0.50;0.10;;;9.40;1.00;;;;;;5133006;27;20454;-80
2022/01/04 08:27:06;;;;;;;0.50;0.10;;;9.40;1.00;;;;;;5133812;27;20472;-78
2022/01/04 08:29:34;;;;;;;0.50;0.10;;;9.30;1.00;;;;;;5122995;27;20464;-77
2022/01/04 08:32:03;;;;;;;0.50;0.10;;;9.30;1.00;;;;;;5128295;27;20445;-79
2022/01/04 08:34:31;;;;;;;0.50;0.10;;;9.30;1.00;;;;;;5130983;27;20441;-78
2022/01/04 08:37:00;;;;;;;0.50;0.10;;;9.40;1.00;;;;;;5112908;28;20444;-77
2022/01/04 08:39:28;;;;;;;0.50;0.10;;;9.30;1.00;;;;;;5131766;27;20446;-78
2022/01/04 08:42:01;;;;;;;0.50;0.10;;;9.40;1.00;;;;;;5130048;27;20444;-78
2022/01/04 08:44:30;;;;;;;0.50;0.10;;;9.40;1.00;;;;;;5126225;27;20563;-77
2022/01/04 08:46:58;;;;;;;0.50;0.10;;;9.30;1.00;;;;;;5134865;27;20449;-79
2022/01/04 08:49:26;;;;;;;0.50;0.10;;;9.60;1.00;;;;;;5114340;27;20452;-78
2022/01/04 08:51:54;;;;;;;0.50;0.10;;;9.30;1.00;;;;;;5127420;27;20479;-78
2022/01/04 08:54:23;;;;;;;0.50;0.10;;;9.30;1.00;;;;;;5120025;27;20448;-78
2022/01/04 08:56:54;;;;;;;0.50;0.10;;;9.30;1.00;;;;;;5126072;27;20442;-79
2022/01/04 08:59:23;;;;;;;0.50;0.10;;;9.30;1.00;;;;;;5125547;27;20496;-78
2022/01/04 09:01:51;;;;;;;0.50;0.10;;;9.30;1.00;;;;;;5126586;27;20441;-78
2022/01/04 09:04:19;;;;;;;0.50;0.10;;;9.30;1.00;;;;;;5123144;27;20823;-79
2022/01/04 09:06:47;;;;;;;0.50;0.10;;;9.30;1.00;;;;;;5118610;27;20442;-78
2022/01/04 09:09:15;;;;;;;0.50;0.10;;;9.30;1.00;;;;;;5121622;27;20462;-81
2022/01/04 09:11:45;;;;;;;0.50;0.10;;;9.90;1.00;;;;;;5133041;27;20522;-81
2022/01/04 09:14:24;;;;;;;0.50;0.10;;;9.40;1.00;;;;;;5115336;27;20845;-80
2022/01/04 09:19:38;;;;;;;0.50;0.10;;;9.30;1.00;;;;;;5114980;28;20474;-79
2022/01/04 09:22:07;;;;;;;0.50;0.10;;;9.30;1.00;;;;;;5119058;28;20453;-80
2022/01/04 09:24:35;;;;;;;0.50;0.10;;;9.40;1.00;;;;;;5123105;27;20499;-78
2022/01/04 09:27:06;;;;;;;0.50;0.10;;;;;;;;;;5140202;27;20450;-80
2022/01/04 09:29:35;;;;;;;0.50;0.10;;;9.40;1.00;;;;;;5137235;27;20627;-80
2022/01/04 09:32:05;;;;;;;0.50;0.10;;;9.40;1.00;;;;;;5135085;27;20503;-81
2022/01/04 09:34:35;;;;;;;0.50;0.10;;;9.40;1.00;;;;;;5144146;27;20459;-80
2022/01/04 09:37:04;;;;;;;0.50;0.10;;;10.90;1.00;;;;;;5136426;27;20974;-79
2022/01/04 09:39:32;;;;;;;0.50;0.10;;;9.30;1.00;;;;;;5126212;27;20459;-81
2022/01/04 09:42:00;;;;;;;0.50;0.20;;;9.30;1.00;;;;;;5144372;27;20446;-81
2022/01/04 09:44:29;;;;;;;0.50;0.10;;;9.30;1.00;;;;;;5148088;27;20485;-81
2022/01/04 09:47:02;;;;;;;0.50;0.10;;;9.30;1.00;;;;;;5141337;27;20435;-80
2022/01/04 09:49:31;;;;;;;0.50;0.10;;;9.40;1.00;;;;;;5141246;27;20757;-82
2022/01/04 09:52:00;;;;;;;0.50;0.10;;;9.30;1.00;;;;;;5142229;27;20998;-78
2022/01/04 09:54:28;;;;;;;0.50;0.10;;;9.40;1.00;;;;;;5132948;27;20502;-81
2022/01/04 09:56:56;;;;;;;0.50;0.10;;;9.30;1.00;;;;;;5122422;27;20443;-81
2022/01/04 09:59:24;;;;;;;45.50;43.70;;;9.30;1.00;;;;;;5137820;27;20459;-81
2022/01/04 10:02:01;;;;;;;2.53;2.43;;;;;;;;;;5133984;27;20526;-80
2022/01/04 10:04:30;;;;;;;0.50;0.10;;;9.40;1.00;;;;;;5118415;28;20819;-79
2022/01/04 10:07:01;;;;;;;0.50;0.10;;;9.40;1.00;;;;;;5120987;27;20439;-80
2022/01/04 10:09:36;;;;;;;0.50;0.10;;;9.40;1.00;;;;;;5136029;27;20473;-80
2022/01/04 10:12:06;;;;;;;0.50;0.10;;;9.40;1.00;;;;;;5127430;27;20949;-80
2022/01/04 10:14:39;;;;;;;0.50;0.10;;;9.40;1.00;;;;;;5114922;27;20446;-81
2022/01/04 10:17:10;;;;;;;0.50;0.10;;;9.40;1.00;;;;;;5134234;27;20471;-81
2022/01/04 10:19:39;;;;;;;0.50;0.10;;;9.40;1.00;;;;;;5125378;27;20510;-79
2022/01/04 10:22:16;;;;;;;0.50;0.10;;;9.40;1.00;;;;;;5116198;28;20439;-80
2022/01/04 10:24:45;;;;;;;0.50;0.10;;;9.40;1.00;;;;;;5114270;28;20504;-79
2022/01/04 10:27:25;;;;;;;0.50;0.10;;;9.30;1.00;;;;;;5116312;28;20454;-81
2022/01/04 10:30:25;;;;;;;0.50;0.10;;;9.30;1.00;;;;;;5134610;27;20471;-79
2022/01/04 10:33:00;;;;;;;0.50;0.10;;;9.40;1.00;;;;;;5071366;28;20452;-81
2022/01/04 10:35:31;;;;;;;0.50;0.20;;;9.40;1.00;;;;;;5115100;28;20807;-80
2022/01/04 10:38:01;;;;;;;0.50;0.10;;;9.40;1.00;;;;;;5117510;28;20507;-79
2022/01/04 10:40:30;;;;;;;0.50;0.10;;;;;;;;;;5117961;28;20459;-79
2022/01/04 10:43:08;;;;;;;0.50;0.10;;;9.40;1.00;;;;;;5124835;28;20446;-79
2022/01/04 10:45:40;;;;;;;0.50;0.10;;;9.40;1.00;;;;;;5116794;28;20474;-79
2022/01/04 10:48:18;;;;;;;0.50;0.10;;;9.40;1.00;;;;;;5120024;28;20454;-80
2022/01/04 10:50:48;;;;;;;0.60;0.30;;;9.30;1.00;;;;;;5133204;28;20466;-79
2022/01/04 10:53:28;;;;;;;0.50;0.10;;;9.30;1.00;;;;;;5133807;28;20529;-79
2022/01/04 10:55:59;;;;;;;0.50;0.10;;;9.30;1.00;;;;;;5115026;28;20477;-79
2022/01/04 10:58:32;;;;;;;0.50;0.10;;;9.20;1.00;;;;;;5113776;28;20416;-80
2022/01/04 11:01:04;;;;;;;0.50;0.10;;;9.10;1.00;;;;;;5130469;28;20474;-79
2022/01/04 11:03:36;;;;;;;0.50;0.10;;;9.10;1.00;;;;;;5118331;28;20977;-77
2022/01/04 11:06:07;;;;;;;0.50;0.10;;;9.10;1.00;;;;;;5112728;28;20471;-80
2022/01/04 11:08:35;;;;;;;0.50;0.10;;;9.10;1.00;;;;;;5131130;28;20442;-79
2022/01/04 11:11:03;;;;;;;0.50;0.10;;;9.00;1.00;;;;;;5136514;28;20534;-78
2022/01/04 11:13:34;;;;;;;0.50;0.10;;;9.00;1.00;;;;;;5139178;28;20446;-78
2022/01/04 11:16:02;;;;;;;0.50;0.10;;;;;;;;;;5134335;28;20470;-77
2022/01/04 11:18:32;;;;;;;0.50;0.10;;;9.00;1.00;;;;;;5127201;28;20439;-79
2022/01/04 11:21:02;;;;;;;0.50;0.10;;;8.90;1.00;;;;;;5133849;28;20515;-79
2022/01/04 11:23:32;;;;;;;0.70;0.40;;;8.90;1.00;;;;;;5124898;28;20451;-80
2022/01/04 11:26:02;;;;;;;0.50;0.10;;;8.90;1.00;;;;;;5113116;28;20474;-78
2022/01/04 11:28:30;;;;;;;0.50;0.10;;;8.80;1.00;;;;;;5112572;28;21165;-78
2022/01/04 11:31:16;;;;;;;0.50;0.10;;;8.80;1.00;;;;;;5120188;28;20462;-78
2022/01/04 11:33:50;;;;;;;0.50;0.10;;;8.80;1.00;;;;;;5116487;28;20438;-78
2022/01/04 11:36:20;;;;;;;0.50;0.10;;;8.80;1.00;;;;;;5116597;28;20878;-79
2022/01/04 11:38:49;;;;;;;0.50;0.10;;;;;;;;;;5135131;28;20447;-79
2022/01/04 11:41:26;;;;;;;0.50;0.10;;;8.70;1.00;;;;;;5133309;28;20437;-80
2022/01/04 11:43:54;;;;;;;0.50;0.10;;;8.70;1.00;;;;;;5134584;28;20445;-79
2022/01/04 11:46:36;;;;;;;0.50;0.10;;;8.80;1.00;;;;;;5133858;28;20442;-79
2022/01/04 11:49:10;;;;;;;0.50;0.10;;;8.80;1.00;;;;;;5112807;28;20790;-78
2022/01/04 11:51:42;;;;;;;0.50;0.10;;;8.80;1.00;;;;;;5116139;28;20497;-78
2022/01/04 11:54:19;;;;;;;0.50;0.10;;;8.80;1.00;;;;;;5120119;27;20438;-79
2022/01/04 11:56:50;;;;;;;0.50;0.10;;;8.90;1.00;;;;;;5137308;27;20452;-79
2022/01/04 11:59:24;;;;;;;0.50;0.10;;;8.90;1.00;;;;;;5135851;27;20552;-79
2022/01/04 12:01:53;;;;;;;0.50;0.10;;;8.90;1.00;;;;;;5137325;27;20793;-79
2022/01/04 12:04:49;;;;;;;0.50;0.10;;;8.90;1.00;;;;;;5128847;27;20497;-80
2022/01/04 12:07:51;;;;;;;0.50;0.10;;;8.90;1.00;;;;;;5118666;28;20503;-79
2022/01/04 12:10:35;;;;;;;0.50;0.10;;;9.00;1.00;;;;;;5116536;28;20548;-78
2022/01/04 12:13:06;;;;;;;0.50;0.10;;;8.90;1.00;;;;;;5116232;28;20825;-78
2022/01/04 12:15:47;;;;;;;0.50;0.10;;;;;;;;;;5126123;27;20458;-80
2022/01/04 12:19:01;;;;;;;0.50;0.10;;;9.00;1.00;;;;;;5116902;28;20442;-79
2022/01/04 12:21:35;;;;;;;0.50;0.10;;;8.90;1.00;;;;;;5118626;28;20469;-78
2022/01/04 12:24:06;;;;;;;0.50;0.10;;;9.00;1.00;;;;;;5138267;27;20522;-79
2022/01/04 12:26:36;;;;;;;0.50;0.10;;;9.00;1.00;;;;;;5139969;27;20978;-79
2022/01/04 12:29:33;;;;;;;0.50;0.10;;;9.00;1.00;;;;;;5139856;27;20445;-79
2022/01/04 12:32:08;;;;;;;0.50;0.10;;;9.00;1.00;;;;;;5123099;27;20451;-79
2022/01/04 12:35:01;;;;;;;0.50;0.10;;;9.00;1.00;;;;;;5126705;27;20538;-78
2022/01/04 12:37:29;;;;;;;0.50;0.10;;;9.00;1.00;;;;;;5127392;27;20477;-79
2022/01/04 12:39:59;;;;;;;0.50;0.10;;;9.00;1.00;;;;;;5131870;27;20478;-79
2022/01/04 12:42:27;;;;;;;0.50;0.10;;;9.00;1.00;;;;;;5124912;27;20451;-79
2022/01/04 12:44:57;;;;;;;0.50;0.10;;;8.90;1.00;;;;;;5123195;27;20475;-78
2022/01/04 12:47:27;;;;;;;0.50;0.10;;;8.80;1.00;;;;;;5114511;28;20450;-78
2022/01/04 12:49:59;;;;;;;0.50;0.10;;;8.80;1.00;;;;;;5121157;27;20479;-78
2022/01/04 12:52:27;;;;;;;0.50;0.10;;;8.70;1.00;;;;;;5119244;27;20812;-78
2022/01/04 12:54:55;;;;;;;0.50;0.10;;;8.60;1.00;;;;;;5119340;27;20457;-77
2022/01/04 12:57:26;;;;;;;0.50;0.10;;;8.60;1.00;;;;;;5113896;27;20948;-78
2022/01/04 12:59:56;;;;;;;0.50;0.10;;;8.50;1.00;;;;;;5114954;28;20558;-79
2022/01/04 13:02:26;;;;;;;0.50;0.10;;;8.50;1.00;;;;;;5125712;27;20486;-79
2022/01/04 13:04:56;;;;;;;0.50;0.10;;;8.50;1.00;;;;;;5121903;27;20478;-79
2022/01/04 13:07:27;;;;;;;0.50;0.10;;;8.50;1.00;;;;;;5134520;27;20808;-79
2022/01/04 13:09:58;;;;;;;0.50;0.10;;;8.50;1.00;;;;;;5124239;27;20984;-78
2022/01/04 13:12:34;;;;;;;0.50;0.10;;;8.50;1.00;;;;;;5123088;27;20528;-79
2022/01/04 13:15:05;;;;;;;0.50;0.10;;;8.40;1.00;;;;;;5123303;27;20452;-78
2022/01/04 13:17:34;;;;;;;0.50;0.10;;;8.40;1.00;;;;;;5130729;27;20441;-79
2022/01/04 13:20:02;;;;;;;0.50;0.13;;;8.50;1.00;;;;;;5142016;27;20802;-80
2022/01/04 13:22:30;;;;;;;0.50;0.10;;;8.40;1.00;;;;;;5141733;27;20451;-79
2022/01/04 13:25:00;;;;;;;0.50;0.10;;;8.50;1.00;;;;;;5151212;27;20540;-80
2022/01/04 13:27:36;;;;;;;0.50;0.10;;;8.60;1.00;;;;;;5125564;27;20446;-77